createdAt,value
2017-12-23T00:01:40.227Z,86.60
2017-12-23T00:04:06.845Z,87.40
2017-12-23T00:06:33.077Z,87.40
2017-12-23T00:08:59.336Z,87.10
2017-12-23T00:11:25.582Z,87.60
2017-12-23T00:13:51.816Z,87.40
2017-12-23T00:16:18.042Z,88.30
2017-12-23T00:18:44.251Z,88.10
2017-12-23T00:21:10.473Z,87.60
2017-12-23T00:23:36.739Z,87.90
2017-12-23T00:26:02.974Z,88.20
2017-12-23T00:28:29.209Z,88.40
2017-12-23T00:30:55.490Z,88.00
2017-12-23T00:33:21.723Z,88.90
2017-12-23T00:35:47.961Z,89.50
2017-12-23T00:38:14.169Z,90.20
2017-12-23T00:40:40.392Z,90.50
2017-12-23T00:43:06.611Z,90.50
2017-12-23T00:45:33.212Z,90.00
2017-12-23T00:47:59.462Z,90.00
2017-12-23T00:50:25.699Z,89.70
2017-12-23T00:52:51.930Z,90.20
2017-12-23T00:55:18.573Z,90.60
2017-12-23T00:57:45.181Z,90.20
2017-12-23T01:00:11.401Z,90.20
2017-12-23T01:02:37.672Z,89.90
2017-12-23T01:05:04.298Z,90.10
2017-12-23T01:07:30.878Z,89.50
2017-12-23T01:09:57.113Z,89.50
2017-12-23T01:12:23.408Z,89.90
2017-12-23T01:14:49.642Z,89.60
2017-12-23T01:17:16.272Z,90.20
2017-12-23T01:19:42.886Z,90.20
2017-12-23T01:22:09.135Z,90.20
2017-12-23T01:24:35.344Z,90.70
2017-12-23T01:27:01.560Z,90.40
2017-12-23T01:29:27.797Z,89.60
2017-12-23T01:31:55.054Z,89.60
2017-12-23T01:34:21.275Z,88.90
2017-12-23T01:36:47.496Z,88.60
2017-12-23T01:39:13.705Z,88.50
2017-12-23T01:41:39.959Z,88.30
2017-12-23T01:44:06.181Z,89.60
2017-12-23T01:46:32.427Z,89.50
2017-12-23T01:48:58.636Z,89.30
2017-12-23T01:51:24.870Z,89.10
2017-12-23T01:53:51.092Z,89.60
2017-12-23T01:56:17.332Z,89.50
2017-12-23T01:58:43.556Z,90.20
2017-12-23T02:01:09.785Z,90.00
2017-12-23T02:03:36.011Z,89.80
2017-12-23T02:06:02.229Z,90.40
2017-12-23T02:08:28.459Z,90.40
2017-12-23T02:10:54.684Z,90.50
2017-12-23T02:13:20.909Z,90.00
2017-12-23T02:15:47.105Z,90.10
2017-12-23T02:18:13.348Z,89.50
2017-12-23T02:20:39.560Z,90.10
2017-12-23T02:23:05.759Z,90.50
2017-12-23T02:25:31.978Z,90.50
2017-12-23T02:27:58.197Z,89.60
2017-12-23T02:30:24.460Z,90.10
2017-12-23T02:32:50.669Z,89.70
2017-12-23T02:35:16.922Z,90.40
2017-12-23T02:37:43.134Z,90.70
2017-12-23T02:40:09.369Z,90.80
2017-12-23T02:42:35.573Z,91.20
2017-12-23T02:45:01.773Z,90.90
2017-12-23T02:47:28.030Z,90.90
2017-12-23T02:49:55.440Z,90.70
2017-12-23T02:52:21.716Z,90.70
2017-12-23T02:54:47.941Z,90.70
2017-12-23T02:57:14.150Z,90.80
2017-12-23T02:59:40.366Z,90.60
2017-12-23T03:02:06.578Z,90.50
2017-12-23T03:04:32.812Z,90.30
2017-12-23T03:06:59.026Z,90.10
2017-12-23T03:09:25.239Z,90.30
2017-12-23T03:11:51.823Z,89.10
2017-12-23T03:14:18.099Z,89.10
2017-12-23T03:16:44.700Z,87.50
2017-12-23T03:19:10.912Z,87.60
2017-12-23T03:21:37.165Z,87.60
2017-12-23T03:24:03.430Z,86.90
2017-12-23T03:26:29.696Z,86.50
2017-12-23T03:28:55.910Z,86.20
2017-12-23T03:31:22.150Z,86.20
2017-12-23T03:33:48.371Z,86.10
2017-12-23T03:36:14.608Z,86.20
2017-12-23T03:38:40.836Z,86.00
2017-12-23T03:41:07.063Z,86.10
2017-12-23T03:43:33.287Z,86.60
2017-12-23T03:45:59.519Z,87.80
2017-12-23T03:48:25.729Z,88.60
2017-12-23T03:50:51.929Z,88.50
2017-12-23T03:53:18.592Z,88.90
2017-12-23T03:55:44.791Z,88.90
2017-12-23T03:58:11.370Z,88.90
2017-12-23T04:00:37.617Z,88.90
2017-12-23T04:03:03.861Z,88.50
2017-12-23T04:05:30.068Z,88.60
2017-12-23T04:07:56.298Z,88.90
2017-12-23T04:10:22.537Z,89.30
2017-12-23T04:12:48.759Z,89.30
2017-12-23T04:15:14.992Z,89.70
2017-12-23T04:17:41.852Z,89.40
2017-12-23T04:20:08.437Z,89.00
2017-12-23T04:22:35.397Z,89.00
2017-12-23T04:25:01.647Z,88.20
2017-12-23T04:27:27.856Z,88.20
2017-12-23T04:29:54.077Z,88.20
2017-12-23T04:32:20.311Z,89.10
2017-12-23T04:34:46.525Z,89.80
2017-12-23T04:37:12.771Z,90.40
2017-12-23T04:39:39.000Z,89.20
2017-12-23T04:42:05.646Z,89.20
2017-12-23T04:44:31.840Z,89.00
2017-12-23T04:46:58.045Z,88.60
2017-12-23T04:49:24.263Z,88.60
2017-12-23T04:51:50.472Z,88.20
2017-12-23T04:54:16.713Z,88.30
2017-12-23T04:56:43.288Z,88.20
2017-12-23T04:59:09.520Z,88.20
2017-12-23T05:01:35.736Z,88.50
2017-12-23T05:04:01.958Z,89.10
2017-12-23T05:06:28.165Z,89.30
2017-12-23T05:08:54.400Z,89.30
2017-12-23T05:11:20.611Z,89.30
2017-12-23T05:13:47.189Z,89.50
2017-12-23T05:16:14.026Z,89.50
2017-12-23T05:18:40.244Z,89.20
2017-12-23T05:21:06.465Z,88.80
2017-12-23T05:23:32.692Z,89.50
2017-12-23T05:25:58.914Z,89.80
2017-12-23T05:28:25.103Z,90.80
2017-12-23T05:30:51.340Z,90.40
2017-12-23T05:33:17.559Z,90.60
2017-12-23T05:35:43.800Z,90.30
2017-12-23T05:38:10.401Z,90.00
2017-12-23T05:40:36.610Z,90.00
2017-12-23T05:43:02.828Z,89.90
2017-12-23T05:45:29.039Z,89.60
2017-12-23T05:47:55.266Z,90.00
2017-12-23T05:50:21.477Z,90.60
2017-12-23T05:52:47.732Z,90.30
2017-12-23T05:55:13.963Z,90.10
2017-12-23T05:57:40.168Z,89.50
2017-12-23T06:00:06.425Z,89.30
2017-12-23T06:02:32.624Z,89.20
2017-12-23T06:05:00.074Z,89.00
2017-12-23T06:07:26.877Z,89.00
2017-12-23T06:09:53.776Z,89.40
2017-12-23T06:12:20.007Z,89.00
2017-12-23T06:14:46.228Z,88.80
2017-12-23T06:17:12.434Z,88.50
2017-12-23T06:19:38.704Z,89.10
2017-12-23T06:22:04.948Z,89.60
2017-12-23T06:24:31.220Z,90.00
2017-12-23T06:26:57.813Z,90.20
2017-12-23T06:29:24.024Z,90.20
2017-12-23T06:31:50.517Z,90.50
2017-12-23T06:34:17.109Z,89.40
2017-12-23T06:36:43.357Z,89.40
2017-12-23T06:39:09.594Z,89.50
2017-12-23T06:41:35.794Z,89.50
2017-12-23T06:44:02.043Z,89.20
2017-12-23T06:46:28.242Z,89.10
2017-12-23T06:48:54.454Z,89.60
2017-12-23T06:51:20.674Z,90.60
2017-12-23T06:53:46.953Z,90.30
2017-12-23T06:56:13.168Z,90.70
2017-12-23T06:58:40.150Z,91.50
2017-12-23T07:01:07.369Z,91.00
2017-12-23T07:03:33.597Z,90.80
2017-12-23T07:05:59.807Z,89.80
2017-12-23T07:08:26.042Z,89.70
2017-12-23T07:10:52.275Z,90.70
2017-12-23T07:13:18.495Z,91.10
2017-12-23T07:15:44.714Z,90.80
2017-12-23T07:18:11.192Z,91.10
2017-12-23T07:20:37.405Z,91.60
2017-12-23T07:23:03.597Z,91.60
2017-12-23T07:25:29.845Z,90.80
2017-12-23T07:27:56.085Z,89.90
2017-12-23T07:30:22.317Z,89.90
2017-12-23T07:32:48.592Z,89.80
2017-12-23T07:35:14.826Z,89.50
2017-12-23T07:37:41.045Z,88.70
2017-12-23T07:40:07.300Z,88.80
2017-12-23T07:42:33.501Z,88.30
2017-12-23T07:44:59.736Z,89.00
2017-12-23T07:47:26.014Z,88.80
2017-12-23T07:49:52.309Z,88.60
2017-12-23T07:52:18.894Z,88.00
2017-12-23T07:54:45.222Z,88.00
2017-12-23T07:57:11.456Z,87.30
2017-12-23T07:59:37.682Z,86.80
2017-12-23T08:02:03.916Z,86.90
2017-12-23T08:04:30.125Z,87.40
2017-12-23T08:06:56.358Z,87.20
2017-12-23T08:09:22.582Z,87.40
2017-12-23T08:11:48.816Z,87.90
2017-12-23T08:14:15.028Z,88.30
2017-12-23T08:16:41.313Z,88.20
2017-12-23T08:19:07.525Z,88.70
2017-12-23T08:21:34.744Z,88.30
2017-12-23T08:24:00.976Z,89.10
2017-12-23T08:26:27.206Z,89.20
2017-12-23T08:28:53.494Z,89.30
2017-12-23T08:31:20.261Z,88.50
2017-12-23T08:33:46.823Z,89.20
2017-12-23T08:36:13.016Z,89.50
2017-12-23T08:38:39.238Z,89.40
2017-12-23T08:41:05.497Z,88.90
2017-12-23T08:43:31.726Z,88.30
2017-12-23T08:45:57.972Z,88.20
2017-12-23T08:48:24.212Z,88.20
2017-12-23T08:50:50.426Z,87.60
2017-12-23T08:53:16.632Z,87.70
2017-12-23T08:55:44.269Z,88.10
2017-12-23T08:58:10.607Z,87.80
2017-12-23T09:00:36.847Z,88.10
2017-12-23T09:03:03.098Z,87.60
2017-12-23T09:05:29.762Z,87.50
2017-12-23T09:07:55.975Z,87.50
2017-12-23T09:10:22.594Z,87.90
2017-12-23T09:12:48.817Z,87.90
2017-12-23T09:15:15.042Z,88.50
2017-12-23T09:17:41.305Z,88.20
2017-12-23T09:20:07.910Z,88.20
2017-12-23T09:22:34.150Z,88.20
2017-12-23T09:25:00.372Z,87.10
2017-12-23T09:27:26.622Z,87.50
2017-12-23T09:29:53.271Z,87.00
2017-12-23T09:32:19.521Z,87.00
2017-12-23T09:34:45.799Z,87.20
2017-12-23T09:37:12.020Z,87.40
2017-12-23T09:39:38.272Z,87.30
2017-12-23T09:42:04.878Z,86.60
2017-12-23T09:44:31.153Z,86.60
2017-12-23T09:46:57.784Z,86.80
2017-12-23T09:49:24.908Z,87.30
2017-12-23T09:51:51.167Z,87.30
2017-12-23T09:54:17.792Z,87.50
2017-12-23T09:56:44.422Z,87.80
2017-12-23T09:59:10.660Z,87.80
2017-12-23T10:01:37.305Z,86.90
2017-12-23T10:04:04.739Z,86.50
2017-12-23T10:06:31.007Z,86.50
2017-12-23T10:08:57.265Z,86.20
2017-12-23T10:11:23.842Z,85.80
2017-12-23T10:13:50.454Z,84.70
2017-12-23T10:16:16.697Z,84.70
2017-12-23T10:18:42.961Z,84.60
2017-12-23T10:21:09.252Z,85.10
2017-12-23T10:23:35.518Z,85.10
2017-12-23T10:26:01.726Z,84.90
2017-12-23T10:28:28.008Z,85.60
2017-12-23T10:30:54.257Z,85.20
2017-12-23T10:33:20.511Z,85.30
2017-12-23T10:35:47.101Z,84.90
2017-12-23T10:38:13.312Z,84.90
2017-12-23T10:40:39.558Z,84.10
2017-12-23T10:43:05.795Z,83.60
2017-12-23T10:45:32.042Z,83.10
2017-12-23T10:47:58.272Z,83.10
2017-12-23T10:50:24.468Z,82.90
2017-12-23T10:52:50.704Z,83.40
2017-12-23T10:55:17.584Z,84.30
2017-12-23T10:57:44.263Z,82.90
2017-12-23T11:00:10.543Z,82.90
2017-12-23T11:02:36.786Z,82.70
2017-12-23T11:05:03.046Z,82.10
2017-12-23T11:07:29.292Z,81.70
2017-12-23T11:09:55.937Z,81.00
2017-12-23T11:12:22.190Z,80.00
2017-12-23T11:14:48.408Z,78.40
2017-12-23T11:17:14.906Z,77.80
2017-12-23T11:19:41.135Z,77.50
2017-12-23T11:22:07.379Z,77.90
2017-12-23T11:24:33.630Z,78.40
2017-12-23T11:26:59.865Z,78.90
2017-12-23T11:29:26.149Z,78.60
2017-12-23T11:31:52.380Z,79.90
2017-12-23T11:34:18.650Z,80.70
2017-12-23T11:36:44.935Z,80.20
2017-12-23T11:39:11.166Z,80.10
2017-12-23T11:41:37.429Z,80.10
2017-12-23T11:44:03.666Z,79.10
2017-12-23T11:46:29.912Z,80.10
2017-12-23T11:48:56.119Z,79.60
2017-12-23T11:51:22.353Z,80.30
2017-12-23T11:53:48.579Z,81.20
2017-12-23T11:56:15.118Z,80.90
2017-12-23T11:58:41.365Z,81.40
2017-12-23T12:01:07.969Z,81.10
2017-12-23T12:03:34.205Z,81.20
2017-12-23T12:06:00.468Z,82.10
2017-12-23T12:08:26.682Z,81.50
2017-12-23T12:10:53.361Z,82.70
2017-12-23T12:13:19.618Z,82.70
2017-12-23T12:15:45.861Z,82.80
2017-12-23T12:18:12.102Z,82.10
2017-12-23T12:20:38.360Z,82.10
2017-12-23T12:23:04.626Z,81.60
2017-12-23T12:25:30.897Z,81.10
2017-12-23T12:27:57.503Z,81.90
2017-12-23T12:30:23.765Z,81.90
2017-12-23T12:32:50.373Z,80.90
2017-12-23T12:35:16.631Z,80.90
2017-12-23T12:37:43.266Z,80.70
2017-12-23T12:40:09.958Z,80.50
2017-12-23T12:42:36.195Z,80.50
2017-12-23T12:45:02.492Z,79.50
2017-12-23T12:47:28.740Z,79.80
2017-12-23T12:49:54.997Z,79.30
2017-12-23T12:52:21.263Z,79.00
2017-12-23T12:54:47.555Z,79.80
2017-12-23T12:57:13.826Z,79.50
2017-12-23T12:59:40.093Z,79.90
2017-12-23T13:02:06.382Z,79.00
2017-12-23T13:04:32.692Z,79.00
2017-12-23T13:06:58.968Z,79.40
2017-12-23T13:09:25.234Z,79.70
2017-12-23T13:11:51.897Z,80.00
2017-12-23T13:14:18.185Z,80.00
2017-12-23T13:16:44.455Z,80.20
2017-12-23T13:19:10.726Z,80.40
2017-12-23T13:21:37.030Z,80.50
2017-12-23T13:24:03.712Z,80.20
2017-12-23T13:26:30.030Z,80.30
2017-12-23T13:28:56.299Z,79.90
2017-12-23T13:31:22.893Z,79.70
2017-12-23T13:33:49.120Z,79.70
2017-12-23T13:36:15.413Z,79.50
2017-12-23T13:38:41.693Z,79.40
2017-12-23T13:41:07.986Z,79.80
2017-12-23T13:43:34.230Z,79.80
2017-12-23T13:46:01.163Z,80.20
2017-12-23T13:48:27.401Z,80.50
2017-12-23T13:50:53.656Z,80.50
2017-12-23T13:53:19.948Z,80.90
2017-12-23T13:55:46.217Z,80.70
2017-12-23T13:58:12.436Z,80.80
2017-12-23T14:00:38.667Z,80.80
2017-12-23T14:03:04.913Z,80.20
2017-12-23T14:05:32.076Z,79.50
2017-12-23T14:07:58.344Z,79.50
2017-12-23T14:10:24.616Z,79.30
2017-12-23T14:12:50.869Z,79.10
2017-12-23T14:15:17.212Z,79.20
2017-12-23T14:17:43.460Z,79.30
2017-12-23T14:20:09.716Z,79.40
2017-12-23T14:22:35.975Z,80.50
2017-12-23T14:25:03.155Z,78.60
2017-12-23T14:27:29.448Z,78.60
2017-12-23T14:29:55.673Z,79.20
2017-12-23T14:32:21.919Z,80.10
2017-12-23T14:34:48.192Z,80.60
2017-12-23T14:37:15.354Z,80.50
2017-12-23T14:39:41.572Z,80.40
2017-12-23T14:42:07.821Z,80.50
2017-12-23T14:44:34.024Z,81.20
2017-12-23T14:47:00.294Z,81.50
2017-12-23T14:49:26.724Z,81.50
2017-12-23T14:51:53.386Z,81.50
2017-12-23T14:54:20.070Z,81.30
2017-12-23T14:56:46.361Z,81.30
2017-12-23T14:59:12.637Z,81.40
2017-12-23T15:01:38.838Z,81.70
2017-12-23T15:04:05.105Z,81.90
2017-12-23T15:06:31.487Z,81.70
2017-12-23T15:08:57.747Z,81.80
2017-12-23T15:11:24.730Z,81.50
2017-12-23T15:13:51.013Z,81.60
2017-12-23T15:16:17.241Z,81.50
2017-12-23T15:18:43.501Z,82.00
2017-12-23T15:21:09.738Z,82.90
2017-12-23T15:23:35.990Z,82.60
2017-12-23T15:26:02.251Z,82.40
2017-12-23T15:28:28.506Z,82.20
2017-12-23T15:30:54.776Z,82.20
2017-12-23T15:33:21.407Z,82.40
2017-12-23T15:35:48.033Z,82.40
2017-12-23T15:38:15.657Z,82.40
2017-12-23T15:40:41.912Z,82.20
2017-12-23T15:43:08.146Z,82.20
2017-12-23T15:45:34.434Z,82.50
2017-12-23T15:48:00.716Z,82.10
2017-12-23T15:50:26.984Z,82.20
2017-12-23T15:52:53.287Z,82.70
2017-12-23T15:55:19.938Z,82.20
2017-12-23T15:57:46.281Z,82.30
2017-12-23T16:00:12.632Z,82.50
2017-12-23T16:02:38.913Z,82.70
2017-12-23T16:05:05.545Z,82.90
2017-12-23T16:07:32.215Z,83.30
2017-12-23T16:09:58.456Z,83.30
2017-12-23T16:12:24.709Z,83.20
2017-12-23T16:14:50.956Z,82.80
2017-12-23T16:17:17.241Z,83.50
2017-12-23T16:19:43.497Z,83.90
2017-12-23T16:22:10.707Z,84.30
2017-12-23T16:24:36.956Z,84.50
2017-12-23T16:27:03.189Z,84.90
2017-12-23T16:29:29.488Z,85.20
2017-12-23T16:31:55.719Z,85.10
2017-12-23T16:34:21.993Z,84.70
2017-12-23T16:36:48.251Z,84.40
2017-12-23T16:39:14.886Z,85.20
2017-12-23T16:41:41.528Z,85.80
2017-12-23T16:44:08.154Z,85.50
2017-12-23T16:46:34.389Z,85.50
2017-12-23T16:49:01.054Z,85.20
2017-12-23T16:51:27.299Z,85.20
2017-12-23T16:53:53.529Z,85.50
2017-12-23T16:56:19.756Z,86.30
2017-12-23T16:58:46.018Z,86.60
2017-12-23T17:01:12.273Z,86.50
2017-12-23T17:03:38.870Z,86.40
2017-12-23T17:06:05.137Z,86.40
2017-12-23T17:08:31.437Z,85.60
2017-12-23T17:10:57.721Z,85.30
2017-12-23T17:13:23.964Z,85.00
2017-12-23T17:15:50.226Z,85.00
2017-12-23T17:18:17.336Z,85.90
2017-12-23T17:20:44.192Z,85.60
2017-12-23T17:23:10.452Z,85.50
2017-12-23T17:25:36.932Z,86.30
2017-12-23T17:28:03.277Z,87.10
2017-12-23T17:30:31.591Z,86.50
2017-12-23T17:32:57.899Z,87.20
2017-12-23T17:35:24.189Z,87.50
2017-12-23T17:37:50.451Z,87.30
2017-12-23T17:40:16.772Z,87.30
2017-12-23T17:42:43.031Z,87.30
2017-12-23T17:45:09.337Z,87.30
2017-12-23T17:47:35.588Z,87.10
2017-12-23T17:50:01.818Z,86.70
2017-12-23T17:52:29.026Z,86.70
2017-12-23T17:54:55.290Z,86.40
2017-12-23T17:57:21.542Z,86.10
2017-12-23T17:59:47.909Z,85.80
2017-12-23T18:02:14.189Z,85.90
2017-12-23T18:04:40.428Z,86.10
2017-12-23T18:07:06.736Z,86.30
2017-12-23T18:09:32.973Z,86.20
2017-12-23T18:11:59.224Z,86.30
2017-12-23T18:14:25.483Z,86.00
2017-12-23T18:16:51.747Z,85.90
2017-12-23T18:19:17.991Z,85.50
2017-12-23T18:21:44.233Z,85.40
2017-12-23T18:24:10.541Z,85.30
2017-12-23T18:26:36.836Z,85.20
2017-12-23T18:29:03.096Z,85.50
2017-12-23T18:31:29.333Z,85.90
2017-12-23T18:33:55.576Z,86.00
2017-12-23T18:36:21.834Z,86.30
2017-12-23T18:38:48.079Z,86.40
2017-12-23T18:41:14.333Z,85.80
2017-12-23T18:43:40.574Z,85.40
2017-12-23T18:46:07.142Z,85.60
2017-12-23T18:48:34.386Z,86.60
2017-12-23T18:51:00.610Z,86.50
2017-12-23T18:53:26.885Z,85.40
2017-12-23T18:55:53.430Z,85.50
2017-12-23T18:58:19.704Z,85.20
2017-12-23T19:00:45.939Z,85.60
2017-12-23T19:03:12.322Z,85.90
2017-12-23T19:05:38.549Z,85.70
2017-12-23T19:08:04.800Z,85.80
2017-12-23T19:10:31.083Z,86.00
2017-12-23T19:12:57.352Z,86.20
2017-12-23T19:15:23.685Z,86.00
2017-12-23T19:17:49.916Z,86.00
2017-12-23T19:20:16.182Z,86.00
2017-12-23T19:22:43.433Z,86.50
2017-12-23T19:25:09.696Z,86.50
2017-12-23T19:27:35.995Z,86.50
2017-12-23T19:30:02.648Z,86.10
2017-12-23T19:32:29.529Z,86.10
2017-12-23T19:34:55.777Z,86.40
2017-12-23T19:37:22.007Z,86.60
2017-12-23T19:39:48.265Z,86.40
2017-12-23T19:42:14.887Z,86.10
2017-12-23T19:44:41.151Z,86.10
2017-12-23T19:47:07.412Z,86.00
2017-12-23T19:49:33.651Z,86.30
2017-12-23T19:52:00.308Z,86.20
2017-12-23T19:54:27.501Z,86.40
2017-12-23T19:56:53.752Z,86.70
2017-12-23T19:59:21.358Z,86.80
2017-12-23T20:01:47.661Z,87.10
2017-12-23T20:04:13.960Z,86.10
2017-12-23T20:06:40.208Z,86.10
2017-12-23T20:09:06.442Z,86.30
2017-12-23T20:11:32.692Z,86.30
2017-12-23T20:13:59.329Z,86.10
2017-12-23T20:16:25.563Z,86.00
2017-12-23T20:18:52.197Z,85.80
2017-12-23T20:21:18.850Z,86.10
2017-12-23T20:23:45.366Z,86.10
2017-12-23T20:26:12.113Z,86.20
2017-12-23T20:28:38.505Z,86.20
2017-12-23T20:31:04.786Z,86.70
2017-12-23T20:33:31.394Z,86.80
2017-12-23T20:35:57.629Z,86.80
2017-12-23T20:38:23.886Z,86.40
2017-12-23T20:40:50.141Z,85.80
2017-12-23T20:43:16.424Z,85.60
2017-12-23T20:45:43.053Z,84.90
2017-12-23T20:48:09.297Z,84.90
2017-12-23T20:50:36.501Z,85.60
2017-12-23T20:53:02.859Z,85.60
2017-12-23T20:55:29.178Z,86.40
2017-12-23T20:57:55.423Z,86.40
2017-12-23T21:00:21.697Z,86.10
2017-12-23T21:02:47.938Z,86.10
2017-12-23T21:05:14.251Z,86.40
2017-12-23T21:07:41.400Z,86.60
2017-12-23T21:10:07.748Z,86.30
2017-12-23T21:12:34.019Z,86.20
2017-12-23T21:15:00.266Z,86.40
2017-12-23T21:17:26.587Z,86.20
2017-12-23T21:19:52.833Z,86.70
2017-12-23T21:22:19.113Z,86.40
2017-12-23T21:24:45.421Z,86.10
2017-12-23T21:27:11.661Z,85.70
2017-12-23T21:29:37.986Z,85.50
2017-12-23T21:32:05.167Z,85.80
2017-12-23T21:34:31.429Z,86.00
2017-12-23T21:36:57.697Z,85.90
2017-12-23T21:39:23.972Z,86.00
2017-12-23T21:41:50.999Z,86.10
2017-12-23T21:44:17.280Z,85.40
2017-12-23T21:46:43.547Z,85.20
2017-12-23T21:49:09.814Z,85.70
2017-12-23T21:51:36.079Z,85.60
2017-12-23T21:54:02.340Z,85.90
2017-12-23T21:56:28.629Z,85.50
2017-12-23T21:58:54.984Z,85.70
2017-12-23T22:01:21.303Z,85.50
2017-12-23T22:03:47.531Z,85.50
2017-12-23T22:06:13.841Z,85.80
2017-12-23T22:08:40.110Z,85.60
2017-12-23T22:11:06.317Z,85.70
2017-12-23T22:13:32.634Z,85.70
2017-12-23T22:15:58.913Z,85.70
2017-12-23T22:18:25.168Z,85.30
2017-12-23T22:20:51.831Z,85.30
2017-12-23T22:23:18.074Z,85.30
2017-12-23T22:25:44.311Z,85.40
2017-12-23T22:28:10.529Z,85.80
2017-12-23T22:30:36.813Z,86.00
2017-12-23T22:33:03.038Z,86.40
2017-12-23T22:35:29.631Z,85.90
2017-12-23T22:37:55.868Z,85.90
2017-12-23T22:40:22.129Z,85.50
2017-12-23T22:42:48.744Z,85.70
2017-12-23T22:45:14.985Z,85.70
2017-12-23T22:47:41.284Z,85.90
2017-12-23T22:50:07.536Z,85.60
2017-12-23T22:52:33.820Z,85.30
2017-12-23T22:55:00.092Z,85.80
2017-12-23T22:57:26.354Z,86.10
2017-12-23T22:59:52.957Z,86.10
2017-12-23T23:02:19.266Z,86.10
2017-12-23T23:04:45.491Z,86.70
2017-12-23T23:07:11.806Z,86.00
2017-12-23T23:09:38.057Z,86.30
2017-12-23T23:12:04.306Z,86.90
2017-12-23T23:14:30.584Z,85.90
2017-12-23T23:16:57.339Z,86.00
2017-12-23T23:19:23.604Z,86.30
2017-12-23T23:21:49.867Z,86.10
2017-12-23T23:24:16.126Z,86.30
2017-12-23T23:26:42.411Z,86.00
2017-12-23T23:29:09.045Z,86.30
2017-12-23T23:31:35.332Z,86.30
2017-12-23T23:34:01.566Z,86.60
2017-12-23T23:36:27.834Z,86.20
2017-12-23T23:38:54.431Z,86.60
2017-12-23T23:41:20.678Z,86.60
2017-12-23T23:43:46.917Z,86.30
2017-12-23T23:46:13.177Z,86.20
2017-12-23T23:48:39.396Z,86.30
2017-12-23T23:51:05.670Z,86.30
2017-12-23T23:53:32.343Z,86.00
2017-12-23T23:56:03.408Z,85.90
2017-12-23T23:58:31.369Z,85.50
